Time;durP1;ratioP1;P1;durP2;ratioP2;P2;SDS_P1;SDS_P2;PMS_P1;PMS_P2;Temp;Humidity;BMP_temperature;BMP_pressure;BME280_temperature;BME280_humidity;BME280_pressure;Samples;Min_cycle;Max_cycle;Signal;HPM_P1;HPM_P2
2023/06/13 00:00:31;;;;;;;8.23;5.68;;;;;;;18.93;49.80;100143.22;4950675;28;20096;-75
2023/06/13 00:03:00;;;;;;;7.47;5.30;;;;;;;18.86;50.00;100142.06;4952066;28;20479;-74
2023/06/13 00:05:27;;;;;;;7.22;5.13;;;;;;;18.87;50.24;100155.34;4932819;28;20054;-76
2023/06/13 00:07:56;;;;;;;5.97;5.05;;;;;;;18.84;50.76;100150.25;4937335;29;20103;-76
2023/06/13 00:10:22;;;;;;;6.30;5.05;;;;;;;18.77;51.74;100157.09;4953969;28;20119;-75
2023/06/13 00:12:51;;;;;;;6.90;5.75;;;;;;;18.63;52.74;100149.38;4953309;28;20055;-75
2023/06/13 00:15:20;;;;;;;5.32;4.80;;;;;;;18.49;53.54;100146.97;4935913;28;20138;-76
2023/06/13 00:17:48;;;;;;;6.65;5.22;;;;;;;18.48;54.13;100154.16;4934844;28;20051;-78
2023/06/13 00:20:15;;;;;;;5.63;5.03;;;;;;;18.37;54.55;100139.97;4952166;28;20051;-75
2023/06/13 00:22:47;;;;;;;9.13;5.45;;;;;;;18.42;54.90;100143.94;4921030;29;20058;-75
2023/06/13 00:25:14;;;;;;;6.78;5.20;;;;;;;18.38;55.04;100158.59;4947337;28;20441;-75
2023/06/13 00:27:42;;;;;;;7.85;5.20;;;;;;;18.30;55.14;100153.00;4953964;28;20047;-74
2023/06/13 00:30:09;;;;;;;8.05;5.35;;;;;;;18.25;54.76;100146.34;4935107;29;20051;-75
2023/06/13 00:32:35;;;;;;;6.15;5.38;;;;;;;18.29;55.32;100148.63;4938357;28;20047;-75
2023/06/13 00:35:08;;;;;;;6.68;5.63;;;;;;;18.26;54.96;100150.72;4949551;28;20046;-75
2023/06/13 00:37:38;;;;;;;6.20;5.53;;;;;;;18.18;55.34;100151.34;4936184;29;20052;-74
2023/06/13 00:40:05;;;;;;;6.32;4.90;;;;;;;18.21;54.24;100151.94;4936447;29;20054;-75
2023/06/13 00:42:33;;;;;;;6.97;5.40;;;;;;;18.17;54.77;100150.50;4932365;29;20066;-76
2023/06/13 00:45:24;;;;;;;6.40;5.10;;;;;;;18.18;54.47;100156.72;4946768;28;20126;-75
2023/06/13 00:48:05;;;;;;;6.15;4.95;;;;;;;18.10;54.68;100159.19;4947291;28;20134;-76
2023/06/13 00:50:40;;;;;;;6.50;4.90;;;;;;;18.13;54.17;100161.56;4936946;29;20573;-76
2023/06/13 00:53:11;;;;;;;8.60;5.00;;;;;;;18.09;54.35;100165.50;4934450;28;20091;-75
2023/06/13 00:55:38;;;;;;;;;;;;;;;18.12;54.74;100159.88;4949873;28;20047;-75
2023/06/13 00:58:06;;;;;;;6.68;5.53;;;;;;;18.14;53.78;100161.47;4952000;28;19928;-75
2023/06/13 01:00:37;;;;;;;6.82;5.55;;;;;;;18.15;53.86;100159.63;4948507;28;20130;-76
2023/06/13 01:03:15;;;;;;;6.93;5.07;;;;;;;18.11;53.38;100148.31;4935089;29;20086;-74
2023/06/13 01:05:43;;;;;;;6.88;5.18;;;;;;;18.06;53.13;100152.34;4928745;29;20055;-75
2023/06/13 01:08:16;;;;;;;10.20;5.50;;;;;;;18.03;53.21;100148.09;4921531;28;20114;-76
2023/06/13 01:10:47;;;;;;;6.13;5.53;;;;;;;17.99;52.92;100140.44;4932598;28;20070;-74
2023/06/13 01:13:24;;;;;;;6.32;5.60;;;;;;;18.02;53.20;100157.09;4951076;28;20047;-75
2023/06/13 01:15:58;;;;;;;5.97;4.72;;;;;;;17.87;53.44;100148.50;4945112;28;20057;-75
2023/06/13 01:18:30;;;;;;;8.02;5.05;;;;;;;17.96;53.54;100162.09;4935232;28;20043;-75
2023/06/13 01:21:00;;;;;;;7.45;5.47;;;;;;;17.80;53.38;100136.56;4936738;28;20418;-76
2023/06/13 01:24:04;;;;;;;6.07;5.20;;;;;;;17.90;53.44;100151.91;4936686;29;20510;-76
2023/06/13 01:26:56;;;;;;;5.95;5.20;;;;;;;17.90;53.24;100154.59;4898364;29;20055;-76
2023/06/13 01:29:23;;;;;;;6.45;5.45;;;;;;;17.86;53.28;100153.97;4935521;29;20064;-74
2023/06/13 01:31:55;;;;;;;7.15;5.65;;;;;;;17.84;53.68;100150.56;4923526;29;20050;-75
2023/06/13 01:34:24;;;;;;;6.65;4.97;;;;;;;17.83;53.51;100159.56;4946278;28;20506;-75
2023/06/13 01:36:52;;;;;;;7.50;5.45;;;;;;;17.78;53.84;100153.75;4934583;29;20419;-75
2023/06/13 01:39:20;;;;;;;9.35;5.20;;;;;;;17.76;53.73;100150.34;4953923;28;20044;-75
2023/06/13 01:41:47;;;;;;;7.15;5.30;;;;;;;17.68;53.84;100140.25;4953818;29;20051;-76
2023/06/13 01:44:19;;;;;;;7.90;5.30;;;;;;;17.60;54.03;100137.31;4917352;28;20051;-76
2023/06/13 01:47:18;;;;;;;5.82;4.88;;;;;;;17.67;53.84;100151.91;4948947;28;20094;-76
2023/06/13 01:50:15;;;;;;;6.50;4.85;;;;;;;17.66;53.04;100147.53;4946884;28;20070;-75
2023/06/13 01:53:14;;;;;;;6.63;5.00;;;;;;;17.69;52.83;100147.28;4942911;28;20055;-75
2023/06/13 01:55:51;;;;;;;6.05;5.18;;;;;;;17.65;53.20;100137.78;4939411;28;20090;-76
2023/06/13 01:58:39;;;;;;;8.35;5.00;;;;;;;17.64;53.12;100141.44;4956397;28;20123;-75
2023/06/13 02:01:08;;;;;;;7.57;5.25;;;;;;;17.66;53.27;100144.84;4938143;29;20196;-75
2023/06/13 02:03:36;;;;;;;6.00;4.65;;;;;;;17.64;53.30;100144.13;4937078;29;20051;-76
2023/06/13 02:06:04;;;;;;;5.28;4.72;;;;;;;17.67;53.18;100143.88;4952022;28;20532;-76
2023/06/13 02:08:31;;;;;;;7.47;5.20;;;;;;;17.67;52.70;100151.06;4934134;29;20466;-77
2023/06/13 02:10:58;;;;;;;7.07;5.07;;;;;;;17.63;52.92;100147.75;4933626;29;20066;-75
2023/06/13 02:13:24;;;;;;;7.50;5.00;;;;;;;17.51;53.03;100127.31;4952248;28;20050;-75
2023/06/13 02:15:52;;;;;;;5.38;4.88;;;;;;;17.45;53.58;100120.66;4929600;29;20043;-76
2023/06/13 02:18:18;;;;;;;8.20;5.13;;;;;;;17.48;53.19;100140.94;4930010;29;20618;-75
2023/06/13 02:20:45;;;;;;;6.53;4.90;;;;;;;17.35;53.66;100132.19;4930009;29;20137;-74
2023/06/13 02:23:12;;;;;;;10.52;5.70;;;;;;;17.39;53.71;100147.03;4932192;29;20051;-74
2023/06/13 02:25:40;;;;;;;7.13;5.38;;;;;;;17.31;53.88;100141.44;4943106;29;20135;-75
2023/06/13 02:28:07;;;;;;;8.82;5.63;;;;;;;17.24;54.29;100143.75;4951402;29;20047;-76
2023/06/13 02:30:34;;;;;;;6.18;4.82;;;;;;;17.24;54.32;100146.41;4936291;29;20043;-75
2023/06/13 02:33:01;;;;;;;6.05;5.05;;;;;;;17.17;54.84;100137.16;4941200;29;20083;-75
2023/06/13 02:35:28;;;;;;;6.45;5.20;;;;;;;17.17;55.30;100151.38;4928349;29;20047;-77
2023/06/13 02:37:55;;;;;;;7.15;5.22;;;;;;;17.10;55.50;100147.50;4928227;29;20044;-75
2023/06/13 02:40:23;;;;;;;6.50;5.25;;;;;;;17.06;55.57;100143.34;4931252;29;20068;-74
2023/06/13 02:42:52;;;;;;;5.80;5.03;;;;;;;17.09;55.44;100150.28;4916898;29;20102;-78
2023/06/13 02:45:19;;;;;;;5.45;4.95;;;;;;;17.03;55.64;100150.75;4924779;29;20706;-75
2023/06/13 02:47:46;;;;;;;5.75;5.15;;;;;;;16.93;56.07;100153.31;4912112;29;20051;-75
2023/06/13 02:50:14;;;;;;;5.85;5.25;;;;;;;16.84;56.42;100140.66;4898324;29;20051;-77
2023/06/13 02:52:41;;;;;;;6.15;5.38;;;;;;;16.86;56.18;100137.84;4913077;29;20052;-76
2023/06/13 02:55:10;;;;;;;7.35;4.88;;;;;;;16.90;56.33;100141.97;4927843;29;20052;-74
2023/06/13 02:57:39;;;;;;;7.85;5.45;;;;;;;16.83;56.11;100133.59;4899533;29;20052;-76
2023/06/13 03:00:09;;;;;;;5.90;4.82;;;;;;;16.81;55.81;100136.38;4927853;29;20051;-74
2023/06/13 03:02:38;;;;;;;5.70;5.00;;;;;;;16.74;56.03;100134.28;4931219;29;20595;-75
2023/06/13 03:05:07;;;;;;;5.75;5.15;;;;;;;16.80;56.47;100144.53;4907709;29;20503;-76
2023/06/13 03:07:34;;;;;;;9.27;4.93;;;;;;;16.79;56.68;100151.69;4929232;29;20636;-75
2023/06/13 03:10:03;;;;;;;8.55;5.38;;;;;;;16.72;56.85;100141.56;4929718;29;20430;-75
2023/06/13 03:12:30;;;;;;;6.00;5.28;;;;;;;16.61;56.97;100129.00;4930236;29;20052;-74
2023/06/13 03:14:57;;;;;;;8.30;5.13;;;;;;;16.73;57.48;100153.97;4902597;29;20075;-75
2023/06/13 03:17:24;;;;;;;7.20;5.32;;;;;;;16.70;57.39;100148.84;4911055;29;20044;-74
2023/06/13 03:19:53;;;;;;;7.00;4.63;;;;;;;16.72;57.02;100158.47;4931065;29;20574;-74
2023/06/13 03:22:30;;;;;;;6.32;5.05;;;;;;;16.68;57.41;100153.50;4931516;29;20106;-75
2023/06/13 03:25:04;;;;;;;10.63;5.18;;;;;;;16.64;57.16;100160.03;4935689;29;20040;-76
2023/06/13 03:27:33;;;;;;;8.55;5.72;;;;;;;16.55;57.56;100147.31;4915592;29;20058;-75
2023/06/13 03:30:00;;;;;;;8.60;5.80;;;;;;;16.51;58.22;100160.06;4937230;29;20047;-76
2023/06/13 03:32:28;;;;;;;6.82;4.97;;;;;;;16.43;58.15;100152.63;4918955;29;20095;-75
2023/06/13 03:34:55;;;;;;;8.40;4.97;;;;;;;16.43;58.20;100157.09;4953239;28;20075;-76
2023/06/13 03:37:22;;;;;;;8.63;5.00;;;;;;;16.42;59.27;100142.88;4946390;29;20066;-75
2023/06/13 03:39:48;;;;;;;6.50;5.03;;;;;;;16.48;58.79;100141.59;4952306;28;20166;-75
2023/06/13 03:42:16;;;;;;;7.78;5.45;;;;;;;16.53;58.48;100146.59;4936684;28;20059;-76
2023/06/13 03:44:46;;;;;;;6.70;5.20;;;;;;;16.49;58.59;100154.84;4920572;29;20043;-76
2023/06/13 03:47:17;;;;;;;7.30;5.45;;;;;;;16.44;58.72;100140.09;4933417;29;20061;-74
2023/06/13 03:49:44;;;;;;;;;;;;;;;16.45;59.01;100147.16;4938398;29;20061;-75
2023/06/13 03:52:12;;;;;;;7.05;5.00;;;;;;;16.40;59.19;100144.81;4933363;29;19922;-75
2023/06/13 03:54:39;;;;;;;8.23;5.25;;;;;;;16.34;59.02;100139.97;4939878;29;20045;-76
2023/06/13 03:57:10;;;;;;;7.25;5.60;;;;;;;16.36;59.34;100138.03;4958007;28;20054;-75
2023/06/13 03:59:38;;;;;;;9.13;4.95;;;;;;;16.29;59.68;100123.41;4955447;28;20054;-76
2023/06/13 04:02:06;;;;;;;6.70;4.90;;;;;;;16.15;60.52;100112.91;4936766;28;20074;-76
2023/06/13 04:04:34;;;;;;;6.63;5.20;;;;;;;16.32;59.52;100136.53;4954662;28;20054;-75
2023/06/13 04:07:04;;;;;;;8.13;5.35;;;;;;;16.28;60.89;100129.72;4950947;28;20394;-76
2023/06/13 04:09:31;;;;;;;5.93;4.93;;;;;;;16.32;60.90;100138.38;4934495;29;20047;-75
2023/06/13 04:11:58;;;;;;;8.75;5.57;;;;;;;16.24;61.03;100130.91;4937275;28;20078;-75
2023/06/13 04:14:24;;;;;;;7.82;5.13;;;;;;;16.29;61.02;100138.59;4937606;29;20129;-74
2023/06/13 04:16:52;;;;;;;6.85;4.95;;;;;;;16.32;61.12;100128.53;4932503;29;20960;-75
2023/06/13 04:19:19;;;;;;;8.07;5.18;;;;;;;16.46;61.17;100140.84;4940403;29;20051;-75
2023/06/13 04:21:48;;;;;;;7.28;5.13;;;;;;;16.41;61.46;100138.50;4953987;29;20458;-75
2023/06/13 04:24:15;;;;;;;5.82;4.80;;;;;;;16.39;63.20;100137.78;4955636;28;20051;-75
2023/06/13 04:26:45;;;;;;;8.23;5.68;;;;;;;16.45;61.79;100149.84;4936519;28;20066;-75
2023/06/13 04:29:19;;;;;;;6.13;5.32;;;;;;;16.49;62.24;100149.50;4956234;28;20057;-75
2023/06/13 04:31:46;;;;;;;11.90;4.95;;;;;;;16.52;62.68;100145.75;4955068;28;20587;-75
2023/06/13 04:34:14;;;;;;;5.75;4.65;;;;;;;16.42;61.40;100129.53;4949962;28;20094;-77
2023/06/13 04:36:44;;;;;;;8.68;5.10;;;;;;;16.56;62.18;100157.88;4933965;29;20065;-75
2023/06/13 04:39:12;;;;;;;6.00;4.80;;;;;;;16.55;63.00;100166.03;4953081;28;20047;-76
2023/06/13 04:41:43;;;;;;;7.40;4.90;;;;;;;16.47;63.71;100156.78;4946206;29;20043;-75
2023/06/13 04:44:10;;;;;;;6.18;5.28;;;;;;;16.55;62.29;100182.91;4932721;29;20059;-76
2023/06/13 04:46:43;;;;;;;6.40;5.18;;;;;;;16.55;63.20;100177.56;4948485;28;20035;-76
2023/06/13 04:49:09;;;;;;;7.65;4.95;;;;;;;16.68;62.99;100190.91;4950051;29;20399;-76
2023/06/13 04:51:37;;;;;;;6.30;4.90;;;;;;;16.71;61.84;100166.59;4933786;29;20063;-76
2023/06/13 04:54:15;;;;;;;7.90;5.00;;;;;;;16.82;60.45;100194.25;4953297;28;20058;-76
2023/06/13 04:56:43;;;;;;;7.45;4.75;;;;;;;16.82;62.16;100186.22;4930231;29;20118;-77
2023/06/13 04:59:10;;;;;;;6.78;4.90;;;;;;;16.88;61.86;100187.56;4934702;29;20083;-75
2023/06/13 05:01:37;;;;;;;6.60;5.32;;;;;;;16.98;61.74;100190.41;4939731;29;20099;-75
2023/06/13 05:04:05;;;;;;;7.70;5.05;;;;;;;16.99;60.59;100190.28;4936866;28;20051;-75
2023/06/13 05:06:37;;;;;;;7.38;4.80;;;;;;;17.00;60.14;100172.41;4946545;28;20914;-75
2023/06/13 05:09:06;;;;;;;7.38;4.60;;;;;;;16.98;58.95;100161.84;4948704;28;20079;-75
2023/06/13 05:11:34;;;;;;;9.00;5.20;;;;;;;17.15;58.36;100182.78;4950655;28;20062;-76
2023/06/13 05:14:02;;;;;;;6.95;4.78;;;;;;;17.28;58.57;100197.88;4932765;28;20075;-77
2023/06/13 05:16:29;;;;;;;7.60;4.78;;;;;;;17.23;59.97;100179.50;4932247;28;20051;-74
2023/06/13 05:19:00;;;;;;;7.20;4.40;;;;;;;17.46;59.25;100202.66;4934113;28;20458;-76
2023/06/13 05:21:28;;;;;;;5.65;4.65;;;;;;;17.50;58.38;100203.25;4934736;29;20059;-77
2023/06/13 05:23:56;;;;;;;8.05;4.90;;;;;;;17.53;57.38;100197.66;4935739;29;20134;-75
2023/06/13 05:26:23;;;;;;;6.15;4.68;;;;;;;17.66;57.46;100203.78;4948656;28;20054;-75
2023/06/13 05:28:50;;;;;;;6.88;4.45;;;;;;;17.67;58.21;100185.88;4933600;29;20077;-74
2023/06/13 05:31:17;;;;;;;8.32;4.60;;;;;;;17.75;56.07;100203.06;4932048;28;20090;-75
2023/06/13 05:33:45;;;;;;;7.63;4.85;;;;;;;17.81;56.96;100207.06;4947417;28;20094;-76
2023/06/13 05:36:13;;;;;;;7.25;4.53;;;;;;;17.90;57.09;100213.53;4948325;28;20043;-75
2023/06/13 05:38:40;;;;;;;7.07;4.45;;;;;;;17.96;55.94;100199.59;4943066;28;20054;-74
2023/06/13 05:41:06;;;;;;;5.70;4.50;;;;;;;17.97;56.50;100193.28;4926689;29;20119;-76
2023/06/13 05:43:34;;;;;;;8.77;4.93;;;;;;;17.82;55.53;100157.88;4935063;28;20151;-76
2023/06/13 05:46:01;;;;;;;5.20;4.43;;;;;;;18.17;55.69;100208.59;4935223;29;20046;-76
2023/06/13 05:48:29;;;;;;;4.82;4.30;;;;;;;18.14;54.89;100193.63;4947951;28;20509;-74
2023/06/13 05:50:56;;;;;;;5.93;4.68;;;;;;;18.37;54.66;100215.88;4935395;29;20158;-76
2023/06/13 05:53:23;;;;;;;6.07;4.55;;;;;;;18.48;53.83;100218.50;4952828;29;20082;-77
2023/06/13 05:55:51;;;;;;;9.27;4.70;;;;;;;18.52;54.25;100203.03;4936389;29;20058;-76
2023/06/13 05:58:18;;;;;;;4.72;4.20;;;;;;;18.49;53.96;100188.03;4926757;28;20059;-77
2023/06/13 06:00:46;;;;;;;7.78;4.90;;;;;;;18.72;54.09;100214.81;4956125;28;20615;-76
2023/06/13 06:03:14;;;;;;;9.95;5.10;;;;;;;18.69;55.35;100212.38;4937517;29;20070;-74
2023/06/13 06:05:41;;;;;;;7.55;4.63;;;;;;;18.76;55.19;100219.78;4937100;29;20078;-74
2023/06/13 06:08:08;;;;;;;7.75;4.70;;;;;;;18.90;54.66;100208.72;4937230;28;20126;-75
2023/06/13 06:10:34;;;;;;;5.35;4.22;;;;;;;19.03;53.55;100196.97;4956712;28;20043;-75
2023/06/13 06:13:02;;;;;;;8.98;4.68;;;;;;;19.35;53.71;100218.38;4940406;29;20104;-75
2023/06/13 06:15:31;;;;;;;5.35;4.53;;;;;;;19.47;52.79;100202.06;4951600;28;20141;-75
2023/06/13 06:17:58;;;;;;;5.47;4.10;;;;;;;19.84;52.24;100205.06;4946232;28;20051;-76
2023/06/13 06:20:25;;;;;;;6.30;4.50;;;;;;;20.38;49.20;100206.53;4943564;28;20054;-75
2023/06/13 06:22:53;;;;;;;6.93;4.55;;;;;;;20.96;48.11;100220.84;4956048;28;20055;-75
2023/06/13 06:25:20;;;;;;;6.70;4.63;;;;;;;21.35;46.79;100210.91;4948328;28;20047;-74
2023/06/13 06:27:52;;;;;;;5.28;4.00;;;;;;;21.75;47.47;100208.94;4953953;29;20051;-74
2023/06/13 06:30:25;;;;;;;8.32;4.43;;;;;;;22.04;46.43;100213.22;4936358;28;20082;-74
2023/06/13 06:32:57;;;;;;;10.20;4.20;;;;;;;22.38;45.39;100201.81;4939519;28;20047;-74
2023/06/13 06:35:24;;;;;;;11.05;4.55;;;;;;;22.79;44.09;100213.06;4913107;29;20044;-74
2023/06/13 06:37:54;;;;;;;5.85;3.83;;;;;;;23.06;43.31;100210.25;4927106;29;21489;-74
2023/06/13 06:40:22;;;;;;;6.78;4.50;;;;;;;23.27;42.16;100209.94;4937868;29;20122;-75
2023/06/13 06:42:48;;;;;;;4.60;3.75;;;;;;;23.42;41.86;100197.53;4931801;29;20134;-75
2023/06/13 06:45:15;;;;;;;7.53;4.22;;;;;;;23.73;42.16;100209.56;4929851;29;20079;-75
2023/06/13 06:47:43;;;;;;;6.13;3.90;;;;;;;24.01;43.21;100207.50;4927664;29;20051;-75
2023/06/13 06:50:10;;;;;;;6.38;4.30;;;;;;;24.08;40.88;100207.72;4912157;29;20532;-75
2023/06/13 06:52:39;;;;;;;6.45;4.20;;;;;;;24.12;41.62;100190.97;4923842;29;22779;-75
2023/06/13 06:55:05;;;;;;;6.35;3.92;;;;;;;24.38;39.81;100195.50;4930878;29;20586;-75
2023/06/13 06:57:34;;;;;;;6.05;4.35;;;;;;;24.79;38.00;100202.66;4926883;29;20056;-74
2023/06/13 07:00:01;;;;;;;5.47;4.13;;;;;;;25.04;39.25;100194.53;4902879;29;20047;-74
2023/06/13 07:02:28;;;;;;;7.70;4.18;;;;;;;25.10;40.67;100199.31;4929835;29;20044;-74
2023/06/13 07:04:55;;;;;;;5.43;3.72;;;;;;;25.16;38.82;100212.19;4931736;29;20040;-74
2023/06/13 07:07:22;;;;;;;6.65;3.97;;;;;;;24.95;37.81;100182.88;4924594;29;20048;-75
2023/06/13 07:09:49;;;;;;;6.28;4.10;;;;;;;25.29;38.79;100203.53;4909210;29;20202;-74
2023/06/13 07:12:16;;;;;;;5.28;4.10;;;;;;;25.30;36.61;100203.34;4913246;29;20071;-75
2023/06/13 07:14:42;;;;;;;10.75;4.20;;;;;;;25.31;36.96;100210.47;4926775;29;20617;-74
2023/06/13 07:17:09;;;;;;;5.00;4.22;;;;;;;25.25;36.39;100207.59;4925882;29;20063;-74
2023/06/13 07:19:37;;;;;;;8.30;3.80;;;;;;;25.24;37.94;100195.06;4913159;29;20075;-74
2023/06/13 07:22:04;;;;;;;9.25;4.20;;;;;;;25.21;38.25;100198.09;4932519;29;20158;-76
2023/06/13 07:24:32;;;;;;;6.32;3.63;;;;;;;25.09;38.54;100203.03;4929815;29;20044;-74
2023/06/13 07:27:00;;;;;;;7.63;3.85;;;;;;;25.24;38.83;100206.75;4933435;29;20061;-75
2023/06/13 07:29:27;;;;;;;5.10;4.00;;;;;;;25.28;39.17;100199.13;4914976;29;20047;-75
2023/06/13 07:31:58;;;;;;;8.88;4.32;;;;;;;25.39;38.70;100199.59;4923465;29;20044;-75
2023/06/13 07:34:25;;;;;;;6.57;4.00;;;;;;;25.71;38.31;100203.28;4960287;28;20458;-76
2023/06/13 07:36:54;;;;;;;7.63;3.92;;;;;;;25.77;37.98;100208.03;4961230;28;20086;-77
2023/06/13 07:39:21;;;;;;;4.45;3.70;;;;;;;25.95;38.45;100205.09;4943249;29;20055;-76
2023/06/13 07:41:49;;;;;;;5.00;3.70;;;;;;;25.61;35.15;100165.50;4959929;28;20043;-75
2023/06/13 07:44:17;;;;;;;6.93;4.10;;;;;;;25.50;37.40;100210.06;4954608;28;20048;-76
2023/06/13 07:46:47;;;;;;;4.32;3.80;;;;;;;25.45;36.29;100204.34;4937785;28;20054;-77
2023/06/13 07:49:16;;;;;;;4.13;3.53;;;;;;;25.63;36.69;100192.47;4948634;28;20134;-78
2023/06/13 07:51:43;;;;;;;6.45;4.05;;;;;;;25.99;36.00;100200.97;4936585;29;20049;-75
2023/06/13 07:54:12;;;;;;;6.13;3.58;;;;;;;26.40;34.82;100204.38;4949587;28;20047;-75
2023/06/13 07:56:39;;;;;;;4.68;3.20;;;;;;;26.66;33.30;100188.59;4933450;29;20043;-76
2023/06/13 07:59:06;;;;;;;5.40;3.72;;;;;;;26.65;31.69;100178.75;4944728;28;20067;-76
2023/06/13 08:01:34;;;;;;;5.43;3.65;;;;;;;26.59;33.86;100189.50;4951532;28;20586;-74
2023/06/13 08:04:01;;;;;;;8.25;3.65;;;;;;;26.54;33.13;100171.88;4935064;28;20135;-75
2023/06/13 08:06:28;;;;;;;6.43;3.60;;;;;;;26.60;31.87;100181.19;4944988;28;20070;-77
2023/06/13 08:08:55;;;;;;;5.90;3.15;;;;;;;26.46;30.23;100160.22;4926469;29;20070;-74
2023/06/13 08:11:22;;;;;;;4.00;3.08;;;;;;;26.39;28.91;100170.97;4932458;29;20130;-75
2023/06/13 08:13:50;;;;;;;6.78;3.42;;;;;;;26.02;30.05;100152.63;4934679;29;20139;-77
2023/06/13 08:16:17;;;;;;;3.60;3.17;;;;;;;26.13;29.28;100154.94;4951939;28;20084;-74
2023/06/13 08:18:44;;;;;;;3.22;2.95;;;;;;;26.45;28.62;100169.38;4947132;28;20642;-74
2023/06/13 08:21:15;;;;;;;4.72;3.17;;;;;;;26.65;29.22;100162.44;4929516;29;20059;-73
2023/06/13 08:23:46;;;;;;;6.00;3.28;;;;;;;26.77;29.62;100152.00;4938886;29;20071;-74
2023/06/13 08:26:15;;;;;;;6.20;3.30;;;;;;;27.00;29.25;100162.88;4952874;28;20050;-75
2023/06/13 08:28:46;;;;;;;5.65;3.38;;;;;;;27.00;28.56;100142.00;4930458;29;20126;-75
2023/06/13 08:31:13;;;;;;;4.63;3.10;;;;;;;27.09;29.01;100157.19;4950178;28;20529;-75
2023/06/13 08:34:01;;;;;;;4.95;3.47;;;;;;;27.22;29.23;100151.13;4938573;29;20063;-75
2023/06/13 08:36:36;;;;;;;5.32;3.42;;;;;;;27.18;27.99;100150.66;4934714;29;20055;-75
2023/06/13 08:39:04;;;;;;;5.65;3.20;;;;;;;26.98;27.81;100148.63;4925656;28;20116;-74
2023/06/13 08:41:32;;;;;;;7.00;3.88;;;;;;;26.90;27.74;100142.22;4944842;28;20115;-75
2023/06/13 08:43:59;;;;;;;5.13;3.70;;;;;;;26.76;27.74;100134.03;4936330;29;20563;-75
2023/06/13 08:46:28;;;;;;;7.55;3.47;;;;;;;26.76;29.09;100156.59;4939693;28;20057;-75
2023/06/13 08:48:57;;;;;;;4.80;3.47;;;;;;;26.72;28.23;100149.00;4929233;28;20043;-76
2023/06/13 08:51:28;;;;;;;6.78;3.65;;;;;;;26.73;28.32;100146.09;4945503;28;20051;-75
2023/06/13 08:53:59;;;;;;;6.93;3.50;;;;;;;26.37;28.23;100142.28;4950164;28;20043;-76
2023/06/13 08:56:33;;;;;;;3.92;3.10;;;;;;;25.84;28.83;100141.19;4926417;28;20055;-75
2023/06/13 08:59:28;;;;;;;4.97;3.33;;;;;;;25.64;29.86;100154.34;4942168;28;20051;-76
2023/06/13 09:01:56;;;;;;;4.00;3.17;;;;;;;25.74;30.20;100159.53;4919780;28;20047;-74
2023/06/13 09:04:27;;;;;;;5.38;3.42;;;;;;;25.77;30.10;100146.50;4936230;28;20055;-75
2023/06/13 09:06:58;;;;;;;5.88;3.55;;;;;;;25.94;30.71;100136.41;4936825;28;20134;-75
2023/06/13 09:09:25;;;;;;;6.85;3.50;;;;;;;26.16;30.23;100143.72;4932678;29;20054;-76
2023/06/13 09:11:52;;;;;;;8.55;3.35;;;;;;;26.19;29.60;100142.53;4948191;28;20509;-74
2023/06/13 09:14:22;;;;;;;4.85;3.40;;;;;;;26.17;30.42;100139.16;4937404;28;20071;-74
2023/06/13 09:16:52;;;;;;;;;;;;;;;26.35;29.02;100136.19;4934721;29;20390;-75
2023/06/13 09:19:19;;;;;;;5.65;3.60;;;;;;;26.28;28.69;100151.50;4948888;28;19937;-75
2023/06/13 09:21:47;;;;;;;4.85;3.33;;;;;;;26.07;28.56;100133.97;4938201;28;20039;-74
2023/06/13 09:24:15;;;;;;;7.90;3.65;;;;;;;25.88;29.89;100128.13;4929183;29;20043;-76
2023/06/13 09:26:43;;;;;;;5.47;3.67;;;;;;;25.73;29.67;100133.44;4954403;28;20081;-76
2023/06/13 09:29:11;;;;;;;5.35;3.58;;;;;;;25.36;29.82;100121.31;4944027;28;20055;-74
2023/06/13 09:31:58;;;;;;;5.22;3.45;;;;;;;25.35;29.81;100133.19;4952576;28;20047;-77
2023/06/13 09:34:28;;;;;;;5.25;3.20;;;;;;;25.24;29.37;100128.13;4950885;28;20083;-75
2023/06/13 09:36:57;;;;;;;4.10;3.55;;;;;;;24.97;30.15;100117.69;4931940;29;20043;-76
2023/06/13 09:39:28;;;;;;;8.43;4.13;;;;;;;24.72;31.00;100131.22;4948954;28;20054;-75
2023/06/13 09:41:57;;;;;;;4.35;3.13;;;;;;;24.69;30.81;100125.31;4947903;28;21622;-76
2023/06/13 09:44:24;;;;;;;4.25;3.38;;;;;;;24.68;30.78;100112.78;4952794;28;20047;-76
2023/06/13 09:46:54;;;;;;;4.70;3.38;;;;;;;24.69;30.45;100109.91;4938477;29;20043;-76
2023/06/13 09:49:20;;;;;;;5.75;3.70;;;;;;;24.59;30.35;100098.38;4946467;28;20130;-75
2023/06/13 09:51:47;;;;;;;5.45;3.55;;;;;;;24.67;29.92;100111.94;4950767;28;20047;-77
2023/06/13 09:54:15;;;;;;;5.57;3.47;;;;;;;24.74;29.78;100117.50;4933882;29;20051;-76
2023/06/13 09:56:43;;;;;;;4.53;3.75;;;;;;;24.77;29.72;100111.75;4935069;29;20056;-76
2023/06/13 09:59:17;;;;;;;4.68;3.70;;;;;;;24.78;29.79;100119.72;4926905;28;21665;-75
2023/06/13 10:01:46;;;;;;;4.05;3.50;;;;;;;24.61;29.88;100109.91;4931253;29;20142;-74
2023/06/13 10:04:14;;;;;;;5.32;3.50;;;;;;;24.60;30.58;100105.50;4926331;28;20047;-74
2023/06/13 10:06:42;;;;;;;5.05;3.60;;;;;;;24.67;29.36;100101.09;4949787;28;20078;-76
2023/06/13 10:09:12;;;;;;;4.45;3.80;;;;;;;24.88;29.52;100105.97;4930228;28;20138;-76
2023/06/13 10:11:43;;;;;;;4.25;3.20;;;;;;;25.00;28.74;100096.53;4948764;28;20054;-74
2023/06/13 10:14:17;;;;;;;6.40;3.60;;;;;;;25.05;28.97;100090.59;4947082;28;20139;-76
2023/06/13 10:16:46;;;;;;;3.92;3.50;;;;;;;25.10;27.93;100097.19;4951137;28;20073;-75
2023/06/13 10:19:37;;;;;;;5.80;3.75;;;;;;;24.95;29.06;100088.06;4950878;28;20085;-77
2023/06/13 10:22:05;;;;;;;5.45;3.20;;;;;;;24.95;28.93;100088.06;4937715;28;20051;-77
2023/06/13 10:24:35;;;;;;;5.05;3.67;;;;;;;24.94;28.51;100077.41;4947379;29;20063;-76
2023/06/13 10:27:04;;;;;;;7.78;3.65;;;;;;;25.00;28.47;100104.66;4957025;28;20071;-74
2023/06/13 10:29:46;;;;;;;6.97;3.55;;;;;;;25.02;27.81;100088.25;4954411;28;20051;-76
2023/06/13 10:32:42;;;;;;;5.22;3.58;;;;;;;25.13;28.14;100085.16;4955359;28;20135;-76
2023/06/13 10:35:16;;;;;;;3.88;3.20;;;;;;;25.09;28.36;100079.22;4936514;29;20050;-77
2023/06/13 10:38:24;;;;;;;5.93;3.70;;;;;;;25.21;28.97;100090.53;4935825;29;20053;-75
2023/06/13 10:41:17;;;;;;;4.10;3.60;;;;;;;25.34;29.38;100093.53;4877024;29;20415;-75
2023/06/13 10:44:03;;;;;;;5.93;3.70;;;;;;;25.31;28.64;100069.53;4883736;29;20548;-75
2023/06/13 10:46:30;;;;;;;4.07;3.50;;;;;;;25.43;28.71;100092.53;4924092;28;20414;-75
2023/06/13 10:49:00;;;;;;;3.83;3.33;;;;;;;25.45;28.96;100079.63;4953203;29;20043;-75
2023/06/13 10:51:29;;;;;;;6.07;3.88;;;;;;;25.53;28.95;100076.03;4946586;28;20600;-77
2023/06/13 10:54:02;;;;;;;5.63;3.83;;;;;;;25.55;29.01;100060.44;4950428;28;20102;-77
2023/06/13 10:56:31;;;;;;;4.38;3.30;;;;;;;25.75;28.27;100059.03;4957210;29;20082;-76
2023/06/13 10:59:11;;;;;;;3.75;3.30;;;;;;;25.71;28.64;100056.84;4937322;29;20047;-78
2023/06/13 11:01:40;;;;;;;5.63;3.78;;;;;;;25.81;27.57;100052.88;4952681;28;20488;-77
2023/06/13 11:04:07;;;;;;;5.13;3.90;;;;;;;25.85;27.93;100062.34;4943615;28;20159;-78
2023/06/13 11:06:35;;;;;;;6.63;3.65;;;;;;;25.83;27.97;100039.13;4935597;29;20061;-78
2023/06/13 11:09:18;;;;;;;4.82;3.40;;;;;;;25.93;27.47;100061.47;4952441;28;20051;-74
2023/06/13 11:11:57;;;;;;;4.03;3.50;;;;;;;25.88;26.63;100044.88;4957105;28;20050;-73
2023/06/13 11:14:26;;;;;;;4.72;3.53;;;;;;;25.85;26.49;100050.66;4960307;28;20047;-80
2023/06/13 11:16:54;;;;;;;5.03;3.33;;;;;;;25.84;27.02;100049.81;4946898;29;20048;-78
2023/06/13 11:19:29;;;;;;;4.22;3.63;;;;;;;25.88;27.54;100052.16;4953829;29;20450;-83
2023/06/13 11:22:02;;;;;;;4.43;3.67;;;;;;;25.91;27.00;100049.09;4949325;29;20082;-83
2023/06/13 11:24:32;;;;;;;5.25;3.58;;;;;;;25.90;27.16;100034.69;4934048;29;20047;-77
2023/06/13 11:27:06;;;;;;;7.55;3.80;;;;;;;26.02;29.03;100043.25;4928285;29;20135;-75
2023/06/13 11:29:37;;;;;;;4.38;3.28;;;;;;;26.17;27.50;100036.88;4928493;29;20055;-85
2023/06/13 11:32:08;;;;;;;6.65;3.58;;;;;;;26.20;27.37;100028.38;4945072;28;20047;-76
2023/06/13 11:34:51;;;;;;;7.35;3.63;;;;;;;26.33;29.00;100035.94;4931545;29;20055;-75
2023/06/13 11:37:31;;;;;;;5.65;3.97;;;;;;;26.33;28.01;100029.66;4933622;29;20043;-76
2023/06/13 11:40:01;;;;;;;4.55;3.30;;;;;;;26.23;27.50;100023.59;4942348;28;20055;-83